createdAt,value
2019-05-26T00:01:38.653Z,98104.78
2019-05-26T00:04:10.643Z,98104.53
2019-05-26T00:06:42.606Z,98102.38
2019-05-26T00:09:14.609Z,98103.56
2019-05-26T00:11:46.579Z,98094.38
2019-05-26T00:14:18.635Z,98091.72
2019-05-26T00:16:50.596Z,98102.28
2019-05-26T00:19:22.587Z,98098.19
2019-05-26T00:21:54.557Z,98091.55
2019-05-26T00:24:26.576Z,98089.92
2019-05-26T00:26:58.573Z,98087.45
2019-05-26T00:29:30.552Z,98089.20
2019-05-26T00:32:02.505Z,98089.36
2019-05-26T00:34:34.493Z,98085.70
2019-05-26T00:37:06.483Z,98084.27
2019-05-26T00:39:38.545Z,98079.61
2019-05-26T00:42:10.529Z,98070.00
2019-05-26T00:44:42.543Z,98070.38
2019-05-26T00:47:14.542Z,98062.94
2019-05-26T00:49:46.598Z,98061.24
2019-05-26T00:52:18.566Z,98059.80
2019-05-26T00:54:50.561Z,98057.48
2019-05-26T00:57:22.516Z,98059.18
2019-05-26T00:59:54.496Z,98056.52
2019-05-26T01:02:26.460Z,98055.73
2019-05-26T01:04:58.427Z,98062.44
2019-05-26T01:07:30.408Z,98054.59
2019-05-26T01:10:02.459Z,98057.09
2019-05-26T01:12:34.417Z,98059.25
2019-05-26T01:15:07.021Z,98058.78
2019-05-26T01:17:39.037Z,98059.73
2019-05-26T01:20:11.029Z,98053.81
2019-05-26T01:22:43.013Z,98061.08
2019-05-26T01:25:15.048Z,98063.33
2019-05-26T01:27:47.203Z,98056.92
2019-05-26T01:30:23.627Z,98063.38
2019-05-26T01:32:55.670Z,98064.05
2019-05-26T01:35:27.641Z,98066.14
2019-05-26T01:37:59.922Z,98065.89
2019-05-26T01:40:36.753Z,98071.59
2019-05-26T01:43:08.810Z,98073.65
2019-05-26T01:45:40.849Z,98067.06
2019-05-26T01:48:12.846Z,98067.73
2019-05-26T01:50:44.949Z,98074.13
2019-05-26T01:53:16.942Z,98080.84
2019-05-26T01:55:48.962Z,98077.98
2019-05-26T01:58:20.927Z,98079.00
2019-05-26T02:00:52.901Z,98087.80
2019-05-26T02:03:24.862Z,98086.28
2019-05-26T02:05:56.818Z,98089.58
2019-05-26T02:08:38.762Z,98090.65
2019-05-26T02:11:02.970Z,98089.02
2019-05-26T02:13:34.989Z,98094.16
2019-05-26T02:16:06.959Z,98085.00
2019-05-26T02:18:38.925Z,98090.24
2019-05-26T02:21:14.691Z,98082.55
2019-05-26T02:23:44.786Z,98082.78
2019-05-26T02:26:16.733Z,98080.19
2019-05-26T02:28:48.816Z,98073.52
2019-05-26T02:31:20.716Z,98068.97
2019-05-26T02:33:52.714Z,98069.27
2019-05-26T02:36:24.701Z,98074.56
2019-05-26T02:39:02.469Z,98074.33
2019-05-26T02:41:33.287Z,98074.11
2019-05-26T02:44:05.304Z,98074.55
2019-05-26T02:46:37.374Z,98073.00
2019-05-26T02:49:09.345Z,98078.86
2019-05-26T02:51:41.330Z,98084.66
2019-05-26T02:54:13.320Z,98085.77
2019-05-26T02:56:45.313Z,98087.14
2019-05-26T02:59:17.328Z,98091.94
2019-05-26T03:02:02.090Z,98084.66
2019-05-26T03:04:23.246Z,98089.70
2019-05-26T03:06:56.323Z,98086.74
2019-05-26T03:09:28.760Z,98087.89
2019-05-26T03:12:02.353Z,98085.94
2019-05-26T03:14:34.369Z,98084.74
2019-05-26T03:17:06.345Z,98086.23
2019-05-26T03:19:40.168Z,98091.46
2019-05-26T03:22:13.963Z,98090.58
2019-05-26T03:24:47.661Z,98091.12
2019-05-26T03:27:19.756Z,98096.72
2019-05-26T03:29:51.893Z,98096.69
2019-05-26T03:32:23.851Z,98092.91
2019-05-26T03:34:55.870Z,98093.31
2019-05-26T03:37:27.843Z,98096.65
2019-05-26T03:39:59.888Z,98095.87
2019-05-26T03:42:31.849Z,98091.35
2019-05-26T03:45:04.996Z,98089.61
2019-05-26T03:47:36.970Z,98088.06
2019-05-26T03:50:08.971Z,98091.71
2019-05-26T03:52:40.969Z,98096.37
2019-05-26T03:55:12.935Z,98099.39
2019-05-26T03:57:44.920Z,98095.22
2019-05-26T04:00:16.963Z,98102.30
2019-05-26T04:02:48.926Z,98096.27
2019-05-26T04:05:20.908Z,98102.53
2019-05-26T04:07:52.876Z,98098.28
2019-05-26T04:10:24.872Z,98100.44
2019-05-26T04:12:56.896Z,98106.03
2019-05-26T04:15:28.908Z,98098.92
2019-05-26T04:18:00.909Z,98104.63
2019-05-26T04:20:32.891Z,98100.38
2019-05-26T04:23:04.930Z,98103.05
2019-05-26T04:25:36.909Z,98105.20
2019-05-26T04:28:08.874Z,98102.70
2019-05-26T04:30:40.867Z,98096.85
2019-05-26T04:33:12.849Z,98101.97
2019-05-26T04:35:44.851Z,98088.25
2019-05-26T04:38:16.880Z,98102.21
2019-05-26T04:40:48.830Z,98098.84
2019-05-26T04:43:20.812Z,98099.66
2019-05-26T04:45:52.781Z,98111.41
2019-05-26T04:48:24.781Z,98105.48
2019-05-26T04:50:56.754Z,98116.44
2019-05-26T04:53:28.754Z,98112.59
2019-05-26T04:56:00.744Z,98119.30
2019-05-26T04:58:32.743Z,98123.08
2019-05-26T05:01:04.701Z,98124.53
2019-05-26T05:03:36.666Z,98119.56
2019-05-26T05:06:08.655Z,98121.19
2019-05-26T05:08:40.688Z,98119.19
2019-05-26T05:11:12.702Z,98124.89
2019-05-26T05:13:44.690Z,98128.19
2019-05-26T05:16:16.660Z,98127.85
2019-05-26T05:18:48.682Z,98128.69
2019-05-26T05:21:20.661Z,98125.98
2019-05-26T05:23:52.617Z,98132.22
2019-05-26T05:26:24.583Z,98132.80
2019-05-26T05:28:56.577Z,98132.88
2019-05-26T05:31:28.540Z,98131.30
2019-05-26T05:34:00.536Z,98126.58
2019-05-26T05:36:32.570Z,98129.37
2019-05-26T05:39:06.584Z,98124.09
2019-05-26T05:41:38.540Z,98129.06
2019-05-26T05:44:10.547Z,98127.88
2019-05-26T05:46:42.658Z,98132.83
2019-05-26T05:49:14.654Z,98136.52
2019-05-26T05:51:46.643Z,98136.36
2019-05-26T05:54:18.622Z,98133.13
2019-05-26T05:56:50.603Z,98131.22
2019-05-26T05:59:22.582Z,98134.26
2019-05-26T06:01:54.583Z,98129.75
2019-05-26T06:04:26.633Z,98140.70
2019-05-26T06:06:58.588Z,98133.05
2019-05-26T06:09:30.580Z,98142.77
2019-05-26T06:12:02.574Z,98144.39
2019-05-26T06:14:34.613Z,98138.33
2019-05-26T06:17:10.335Z,98142.25
2019-05-26T06:19:40.544Z,98145.47
2019-05-26T06:22:12.578Z,98143.55
2019-05-26T06:24:44.565Z,98145.34
2019-05-26T06:27:16.542Z,98139.16
2019-05-26T06:29:58.592Z,98140.06
2019-05-26T06:32:22.433Z,98142.26
2019-05-26T06:34:54.452Z,98144.16
2019-05-26T06:37:26.426Z,98137.98
2019-05-26T06:39:58.490Z,98141.67
2019-05-26T06:42:30.499Z,98137.91
2019-05-26T06:45:02.757Z,98133.38
2019-05-26T06:47:34.741Z,98132.07
2019-05-26T06:50:07.240Z,98123.80
2019-05-26T06:52:39.234Z,98133.30
2019-05-26T06:55:11.448Z,98128.67
2019-05-26T06:57:43.435Z,98123.06
2019-05-26T07:00:15.547Z,98124.13
2019-05-26T07:02:47.569Z,98124.92
2019-05-26T07:05:19.616Z,98125.20
2019-05-26T07:07:51.873Z,98128.20
2019-05-26T07:10:23.809Z,98123.05
2019-05-26T07:12:55.819Z,98122.77
2019-05-26T07:15:27.783Z,98122.12
2019-05-26T07:17:59.789Z,98127.16
2019-05-26T07:20:31.747Z,98123.63
2019-05-26T07:23:04.654Z,98127.58
2019-05-26T07:25:37.643Z,98125.56
2019-05-26T07:28:09.659Z,98117.25
2019-05-26T07:30:41.616Z,98125.44
2019-05-26T07:33:15.206Z,98125.28
2019-05-26T07:35:49.789Z,98126.88
2019-05-26T07:38:21.128Z,98117.27
2019-05-26T07:40:53.129Z,98121.59
2019-05-26T07:43:27.986Z,98114.52
2019-05-26T07:45:59.046Z,98118.30
2019-05-26T07:48:35.367Z,98113.45
2019-05-26T07:51:05.035Z,98112.24
2019-05-26T07:53:37.086Z,98105.88
2019-05-26T07:56:09.093Z,98102.11
2019-05-26T07:58:41.126Z,98106.95
2019-05-26T08:01:13.127Z,98105.89
2019-05-26T08:03:45.125Z,98101.54
2019-05-26T08:06:17.152Z,98104.74
2019-05-26T08:08:49.182Z,98098.93
2019-05-26T08:11:21.149Z,98099.44
2019-05-26T08:13:53.147Z,98101.89
2019-05-26T08:16:25.167Z,98102.02
2019-05-26T08:18:57.174Z,98104.85
2019-05-26T08:21:29.217Z,98108.21
2019-05-26T08:24:01.282Z,98106.94
2019-05-26T08:26:33.257Z,98113.38
2019-05-26T08:29:05.248Z,98100.44
2019-05-26T08:31:37.254Z,98102.34
2019-05-26T08:34:09.244Z,98104.61
2019-05-26T08:36:41.241Z,98098.86
2019-05-26T08:39:13.321Z,98102.84
2019-05-26T08:41:45.331Z,98100.16
2019-05-26T08:44:17.392Z,98099.14
2019-05-26T08:46:49.360Z,98102.73
2019-05-26T08:49:21.424Z,98093.92
2019-05-26T08:51:53.423Z,98096.33
2019-05-26T08:54:25.442Z,98094.09
2019-05-26T08:56:57.422Z,98091.77
2019-05-26T08:59:29.492Z,98091.91
2019-05-26T09:02:01.511Z,98084.92
2019-05-26T09:04:33.518Z,98086.84
2019-05-26T09:07:05.570Z,98078.22
2019-05-26T09:09:37.622Z,98084.27
2019-05-26T09:12:09.664Z,98079.68
2019-05-26T09:14:41.704Z,98083.19
2019-05-26T09:17:13.726Z,98085.39
2019-05-26T09:19:45.741Z,98085.33
2019-05-26T09:22:17.775Z,98083.96
2019-05-26T09:24:49.823Z,98087.73
2019-05-26T09:27:21.850Z,98081.82
2019-05-26T09:29:53.925Z,98074.13
2019-05-26T09:32:26.030Z,98070.16
2019-05-26T09:34:58.038Z,98071.20
2019-05-26T09:37:30.074Z,98064.22
2019-05-26T09:40:02.342Z,98058.19
2019-05-26T09:42:34.391Z,98063.75
2019-05-26T09:45:06.582Z,98047.28
2019-05-26T09:47:38.598Z,98059.44
2019-05-26T09:50:11.019Z,98059.78
2019-05-26T09:52:43.030Z,98056.83
2019-05-26T09:55:15.315Z,98056.42
2019-05-26T09:57:47.365Z,98055.61
2019-05-26T10:00:19.664Z,98059.24
2019-05-26T10:02:51.744Z,98048.23
2019-05-26T10:05:23.743Z,98043.46
2019-05-26T10:07:55.787Z,98040.39
2019-05-26T10:10:27.845Z,98041.34
2019-05-26T10:12:59.909Z,98040.03
2019-05-26T10:15:32.052Z,98039.11
2019-05-26T10:18:04.365Z,98039.13
2019-05-26T10:20:36.441Z,98033.67
2019-05-26T10:23:08.436Z,98030.69
2019-05-26T10:25:40.499Z,98039.35
2019-05-26T10:28:12.491Z,98034.22
2019-05-26T10:30:44.509Z,98025.09
2019-05-26T10:33:16.572Z,98019.67
2019-05-26T10:35:48.584Z,98018.86
2019-05-26T10:38:20.589Z,98018.75
2019-05-26T10:40:52.623Z,98016.75
2019-05-26T10:43:24.666Z,98009.77
2019-05-26T10:45:56.711Z,98013.30
2019-05-26T10:48:28.734Z,98015.01
2019-05-26T10:51:00.717Z,98015.42
2019-05-26T10:53:32.761Z,98011.45
2019-05-26T10:56:04.810Z,98009.77
2019-05-26T10:58:36.857Z,98005.04
2019-05-26T11:01:08.874Z,97995.83
2019-05-26T11:03:40.869Z,97998.44
2019-05-26T11:06:12.875Z,98003.10
2019-05-26T11:08:44.899Z,97997.27
2019-05-26T11:11:16.885Z,98001.91
2019-05-26T11:14:01.785Z,97999.75
2019-05-26T11:16:22.838Z,97992.33
2019-05-26T11:18:54.819Z,97991.43
2019-05-26T11:21:26.880Z,97987.84
2019-05-26T11:23:58.838Z,97991.51
2019-05-26T11:26:30.837Z,97992.81
2019-05-26T11:29:02.858Z,97986.01
2019-05-26T11:31:34.936Z,97981.63
2019-05-26T11:34:06.958Z,97977.88
2019-05-26T11:36:38.953Z,97969.26
2019-05-26T11:39:11.028Z,97961.59
2019-05-26T11:41:43.057Z,97955.51
2019-05-26T11:44:17.898Z,97956.08
2019-05-26T11:46:49.065Z,97952.06
2019-05-26T11:49:21.030Z,97951.25
2019-05-26T11:51:53.076Z,97945.39
2019-05-26T11:54:25.053Z,97950.68
2019-05-26T11:56:57.136Z,97948.51
2019-05-26T11:59:29.123Z,97947.33
2019-05-26T12:02:01.130Z,97942.47
2019-05-26T12:04:33.133Z,97939.95
2019-05-26T12:07:05.132Z,97940.31
2019-05-26T12:09:37.103Z,97938.89
2019-05-26T12:12:09.228Z,97932.33
2019-05-26T12:14:41.201Z,97921.53
2019-05-26T12:17:13.219Z,97921.90
2019-05-26T12:19:45.213Z,97915.70
2019-05-26T12:22:17.220Z,97912.72
2019-05-26T12:24:49.239Z,97907.56
2019-05-26T12:27:21.257Z,97906.13
2019-05-26T12:29:53.239Z,97904.41
2019-05-26T12:32:25.241Z,97897.37
2019-05-26T12:34:57.218Z,97893.88
2019-05-26T12:37:29.212Z,97890.91
2019-05-26T12:40:01.238Z,97891.77
2019-05-26T12:42:33.209Z,97890.94
2019-05-26T12:45:05.362Z,97887.66
2019-05-26T12:47:37.513Z,97881.57
2019-05-26T12:50:10.399Z,97877.25
2019-05-26T12:52:42.388Z,97871.69
2019-05-26T12:55:16.179Z,97875.19
2019-05-26T12:57:48.200Z,97865.08
2019-05-26T13:00:20.484Z,97867.30
2019-05-26T13:02:52.526Z,97863.83
2019-05-26T13:05:24.537Z,97867.36
2019-05-26T13:07:56.846Z,97862.05
2019-05-26T13:10:28.857Z,97858.17
2019-05-26T13:13:00.942Z,97856.02
2019-05-26T13:15:32.938Z,97850.42
2019-05-26T13:18:04.955Z,97851.20
2019-05-26T13:20:37.761Z,97841.76
2019-05-26T13:23:09.779Z,97836.09
2019-05-26T13:25:41.757Z,97840.83
2019-05-26T13:28:13.763Z,97833.73
2019-05-26T13:30:45.765Z,97840.17
2019-05-26T13:33:17.792Z,97837.37
2019-05-26T13:35:49.759Z,97840.86
2019-05-26T13:38:21.889Z,97825.77
2019-05-26T13:40:53.931Z,97827.50
2019-05-26T13:43:25.920Z,97827.99
2019-05-26T13:45:57.948Z,97832.34
2019-05-26T13:48:29.946Z,97831.66
2019-05-26T13:51:01.997Z,97825.53
2019-05-26T13:53:33.972Z,97817.66
2019-05-26T13:56:06.012Z,97812.42
2019-05-26T13:58:38.015Z,97821.98
2019-05-26T14:01:10.023Z,97814.16
2019-05-26T14:03:42.109Z,97822.45
2019-05-26T14:06:14.148Z,97820.78
2019-05-26T14:08:46.135Z,97823.82
2019-05-26T14:11:18.263Z,97811.66
2019-05-26T14:13:50.333Z,97809.53
2019-05-26T14:16:23.197Z,97816.98
2019-05-26T14:18:55.730Z,97816.16
2019-05-26T14:21:27.726Z,97814.80
2019-05-26T14:23:59.841Z,97827.73
2019-05-26T14:26:31.856Z,97830.25
2019-05-26T14:29:03.850Z,97814.56
2019-05-26T14:31:35.868Z,97816.59
2019-05-26T14:34:07.923Z,97818.86
2019-05-26T14:36:39.955Z,97814.47
2019-05-26T14:39:11.979Z,97811.52
2019-05-26T14:41:44.025Z,97812.42
2019-05-26T14:44:16.026Z,97812.86
2019-05-26T14:46:48.033Z,97815.14
2019-05-26T14:49:20.165Z,97808.14
2019-05-26T14:51:52.181Z,97807.31
2019-05-26T14:54:24.219Z,97808.19
2019-05-26T14:56:56.239Z,97798.58
2019-05-26T14:59:28.206Z,97806.41
2019-05-26T15:02:00.216Z,97803.42
2019-05-26T15:04:32.224Z,97799.89
2019-05-26T15:07:04.259Z,97800.39
2019-05-26T15:09:36.269Z,97796.83
2019-05-26T15:12:08.289Z,97798.53
2019-05-26T15:14:40.285Z,97808.14
2019-05-26T15:17:12.447Z,97800.33
2019-05-26T15:19:44.444Z,97800.30
2019-05-26T15:22:16.478Z,97796.00
2019-05-26T15:24:48.487Z,97782.06
2019-05-26T15:27:20.466Z,97785.98
2019-05-26T15:29:52.481Z,97788.21
2019-05-26T15:32:24.494Z,97782.48
2019-05-26T15:34:56.535Z,97788.17
2019-05-26T15:37:28.506Z,97785.11
2019-05-26T15:40:00.533Z,97783.77
2019-05-26T15:42:32.516Z,97786.30
2019-05-26T15:45:04.829Z,97778.38
2019-05-26T15:47:36.923Z,97780.56
2019-05-26T15:50:08.968Z,97779.83
2019-05-26T15:52:41.291Z,97775.78
2019-05-26T15:55:13.723Z,97777.84
2019-05-26T15:57:45.783Z,97776.45
2019-05-26T16:00:18.279Z,97768.20
2019-05-26T16:02:50.325Z,97760.84
2019-05-26T16:05:22.406Z,97758.27
2019-05-26T16:07:54.429Z,97750.54
2019-05-26T16:10:26.457Z,97745.30
2019-05-26T16:12:58.506Z,97753.52
2019-05-26T16:15:30.554Z,97756.09
2019-05-26T16:18:02.656Z,97763.36
2019-05-26T16:20:34.684Z,97754.65
2019-05-26T16:23:08.816Z,97754.14
2019-05-26T16:25:40.659Z,97750.67
2019-05-26T16:28:12.703Z,97750.20
2019-05-26T16:30:44.784Z,97756.80
2019-05-26T16:33:16.817Z,97759.41
2019-05-26T16:35:48.969Z,97758.89
2019-05-26T16:38:21.034Z,97760.69
2019-05-26T16:40:53.149Z,97762.42
2019-05-26T16:43:25.152Z,97761.43
2019-05-26T16:45:57.218Z,97753.59
2019-05-26T16:48:29.211Z,97747.46
2019-05-26T16:51:01.351Z,97749.20
2019-05-26T16:53:33.409Z,97752.30
2019-05-26T16:56:05.535Z,97748.71
2019-05-26T16:58:37.512Z,97747.84
2019-05-26T17:01:09.581Z,97742.12
2019-05-26T17:03:41.581Z,97738.19
2019-05-26T17:06:13.640Z,97731.25
2019-05-26T17:08:45.619Z,97737.67
2019-05-26T17:11:17.658Z,97738.05
2019-05-26T17:13:49.692Z,97736.31
2019-05-26T17:16:21.680Z,97732.38
2019-05-26T17:18:53.666Z,97736.69
2019-05-26T17:21:25.731Z,97737.96
2019-05-26T17:23:57.745Z,97732.38
2019-05-26T17:26:29.750Z,97731.91
2019-05-26T17:29:01.761Z,97737.41
2019-05-26T17:31:33.805Z,97734.77
2019-05-26T17:34:05.794Z,97725.14
2019-05-26T17:36:37.888Z,97726.41
2019-05-26T17:39:09.880Z,97727.21
2019-05-26T17:41:42.101Z,97724.51
2019-05-26T17:44:14.130Z,97730.58
2019-05-26T17:46:46.292Z,97730.48
2019-05-26T17:49:18.322Z,97729.50
2019-05-26T17:51:50.503Z,97733.80
2019-05-26T17:54:22.575Z,97731.20
2019-05-26T17:56:54.700Z,97735.47
2019-05-26T17:59:26.794Z,97734.48
2019-05-26T18:01:58.856Z,97727.05
2019-05-26T18:04:30.999Z,97720.58
2019-05-26T18:07:03.168Z,97724.77
2019-05-26T18:09:43.643Z,97724.69
2019-05-26T18:12:09.232Z,97719.38
2019-05-26T18:14:41.387Z,97723.23
2019-05-26T18:17:13.572Z,97719.59
2019-05-26T18:19:45.661Z,97724.75
2019-05-26T18:22:17.763Z,97722.81
2019-05-26T18:24:56.437Z,97726.14
2019-05-26T18:27:23.902Z,97730.43
2019-05-26T18:29:56.074Z,97725.53
2019-05-26T18:32:28.092Z,97727.64
2019-05-26T18:35:00.250Z,97729.23
2019-05-26T18:37:32.337Z,97723.04
2019-05-26T18:40:05.034Z,97717.75
2019-05-26T18:42:37.078Z,97718.51
2019-05-26T18:45:09.296Z,97720.57
2019-05-26T18:47:41.354Z,97722.54
2019-05-26T18:50:13.754Z,97718.11
2019-05-26T18:52:45.860Z,97722.70
2019-05-26T18:55:17.941Z,97719.56
2019-05-26T18:57:50.057Z,97715.06
2019-05-26T19:00:22.251Z,97720.56
2019-05-26T19:02:54.550Z,97726.88
2019-05-26T19:05:33.813Z,97724.48
2019-05-26T19:08:01.557Z,97725.13
2019-05-26T19:10:33.661Z,97724.52
2019-05-26T19:13:05.663Z,97729.52
2019-05-26T19:15:37.785Z,97730.31
2019-05-26T19:18:19.428Z,97730.12
2019-05-26T19:20:43.924Z,97726.91
2019-05-26T19:23:15.976Z,97738.00
2019-05-26T19:25:48.042Z,97732.48
2019-05-26T19:28:20.063Z,97737.02
2019-05-26T19:30:52.082Z,97737.69
2019-05-26T19:33:24.170Z,97740.91
2019-05-26T19:35:56.405Z,97736.48
2019-05-26T19:38:28.449Z,97738.55
2019-05-26T19:41:00.668Z,97746.47
2019-05-26T19:43:32.787Z,97747.77
2019-05-26T19:46:04.907Z,97753.73
2019-05-26T19:48:37.486Z,97748.33
2019-05-26T19:51:09.675Z,97747.33
2019-05-26T19:53:41.766Z,97755.33
2019-05-26T19:56:13.872Z,97761.12
2019-05-26T19:58:45.933Z,97766.63
2019-05-26T20:01:18.062Z,97758.71
2019-05-26T20:03:50.113Z,97761.91
2019-05-26T20:06:22.229Z,97766.86
2019-05-26T20:08:54.316Z,97761.55
2019-05-26T20:11:26.357Z,97766.55
2019-05-26T20:13:58.466Z,97764.62
2019-05-26T20:16:31.015Z,97759.73
2019-05-26T20:19:03.553Z,97764.38
2019-05-26T20:21:35.666Z,97765.94
2019-05-26T20:24:07.886Z,97775.27
2019-05-26T20:26:40.027Z,97776.53
2019-05-26T20:29:12.033Z,97780.23
2019-05-26T20:31:44.062Z,97777.98
2019-05-26T20:34:16.072Z,97778.96
2019-05-26T20:36:48.239Z,97774.22
2019-05-26T20:39:20.260Z,97778.75
2019-05-26T20:41:52.371Z,97776.16
2019-05-26T20:44:24.396Z,97777.39
2019-05-26T20:46:56.550Z,97776.55
2019-05-26T20:49:44.375Z,97780.53
2019-05-26T20:52:02.592Z,97784.63
2019-05-26T20:54:34.765Z,97779.31
2019-05-26T20:57:06.790Z,97778.67
2019-05-26T20:59:38.979Z,97776.37
2019-05-26T21:02:11.059Z,97779.38
2019-05-26T21:04:43.150Z,97780.67
2019-05-26T21:07:15.143Z,97775.37
2019-05-26T21:09:47.251Z,97778.14
2019-05-26T21:12:19.257Z,97771.50
2019-05-26T21:14:51.301Z,97771.41
2019-05-26T21:17:23.334Z,97773.11
2019-05-26T21:19:55.377Z,97771.50
2019-05-26T21:22:27.380Z,97769.27
2019-05-26T21:24:59.399Z,97765.83
2019-05-26T21:27:31.408Z,97775.11
2019-05-26T21:30:04.461Z,97770.75
2019-05-26T21:32:36.473Z,97774.80
2019-05-26T21:35:08.778Z,97773.53
2019-05-26T21:37:40.733Z,97774.79
2019-05-26T21:40:13.104Z,97772.66
2019-05-26T21:42:45.216Z,97778.06
2019-05-26T21:45:17.255Z,97773.05
2019-05-26T21:47:49.291Z,97776.28
2019-05-26T21:50:21.338Z,97773.63
2019-05-26T21:52:53.299Z,97770.59
2019-05-26T21:55:25.286Z,97774.48
2019-05-26T21:57:57.340Z,97775.19
2019-05-26T22:00:34.206Z,97781.52
2019-05-26T22:03:06.318Z,97787.80
2019-05-26T22:05:38.429Z,97779.42
2019-05-26T22:08:10.422Z,97776.67
2019-05-26T22:10:42.386Z,97780.60
2019-05-26T22:13:14.344Z,97785.64
2019-05-26T22:15:46.398Z,97786.92
2019-05-26T22:18:18.381Z,97783.17
2019-05-26T22:20:50.429Z,97782.00
2019-05-26T22:23:22.373Z,97785.27
2019-05-26T22:25:54.389Z,97779.84
2019-05-26T22:28:26.400Z,97771.17
2019-05-26T22:30:58.408Z,97766.33
2019-05-26T22:33:30.368Z,97776.67
2019-05-26T22:36:02.391Z,97773.33
2019-05-26T22:38:34.356Z,97772.57
2019-05-26T22:41:06.317Z,97771.09
2019-05-26T22:43:38.276Z,97769.47
2019-05-26T22:46:10.318Z,97763.14
2019-05-26T22:48:42.339Z,97757.05
2019-05-26T22:51:14.333Z,97762.09
2019-05-26T22:53:46.329Z,97759.89
2019-05-26T22:56:18.290Z,97756.38
2019-05-26T22:58:50.246Z,97759.64
2019-05-26T23:01:22.250Z,97755.44
2019-05-26T23:03:54.175Z,97756.19
2019-05-26T23:06:26.149Z,97753.09
2019-05-26T23:08:58.104Z,97757.25
2019-05-26T23:11:30.094Z,97752.70
2019-05-26T23:14:02.071Z,97751.98
2019-05-26T23:16:34.039Z,97750.92
2019-05-26T23:19:18.645Z,97751.52
2019-05-26T23:21:39.953Z,97746.41
2019-05-26T23:24:11.893Z,97746.92
2019-05-26T23:26:43.879Z,97742.04
2019-05-26T23:29:15.842Z,97743.89
2019-05-26T23:31:47.811Z,97745.66
2019-05-26T23:34:19.774Z,97738.23
2019-05-26T23:36:51.724Z,97739.73
2019-05-26T23:39:23.709Z,97735.59
2019-05-26T23:41:55.699Z,97740.08
2019-05-26T23:44:27.660Z,97736.39
2019-05-26T23:46:59.612Z,97730.59
2019-05-26T23:49:31.585Z,97725.38
2019-05-26T23:52:03.549Z,97727.61
2019-05-26T23:54:35.535Z,97729.34
2019-05-26T23:57:07.498Z,97725.45
2019-05-26T23:59:39.481Z,97727.48
